• Join FlightAware (Why Join?)
  • Login
  • US Flag 
05:43AM EST


 

Airport Tracker/Info


-or-


 

Live Flight TrackerFlight Track Log ✈ AWE1710 ✈ 03-Jun-2013 ✈ KCLT - KMCO

Flight Track Log - Related Links

Times and Time Zones

All times are in EDT time to prevent confusion due to time zone crossing. See the AWE1710 flight status page for this flight to view local times or setup timezone preferences in your user account.

Time Position Orientation Groundspeed Altitude Reporting Facility
EDT Latitude Longitude Course Direction KTS MPH feet Rate Location/Type
01:20PM 35.1390 -80.9270 170° South 225 259 3,000  Level FlightAware
01:21PM 35.1090 -80.9210 171° South 252 290 3,500 1,680 Climbing FlightAware
01:21PM 35.0900 -80.9170 170° South 255 293 4,200 2,040 Climbing FlightAware
01:21PM 35.0560 -80.9100 170° South 277 319 5,000 1,980 Climbing FlightAware
01:22PM 35.0220 -80.9060 174° South 282 325 6,000 2,520 Climbing FlightAware
01:22PM 34.9850 -80.9010 174° South 281 323 7,300 2,580 Climbing FlightAware
01:22PM 34.9650 -80.9000 178° South 280 322 7,900 2,400 Climbing FlightAware
01:23PM 34.9330 -80.9000 180° South 281 323 8,900 2,220 Climbing FlightAware
01:23PM 34.8930 -80.8990 179° South 289 333 9,900 1,800 Climbing FlightAware
01:24PM 34.8380 -80.8980 179° South 306 352 11,100 1,560 Climbing FlightAware
01:25PM 34.7770 -80.8970 179° South 330 380 12,100 1,860 Climbing FlightAware
01:25PM 34.7110 -80.8960 179° South 333 383 13,700 2,040 Climbing FlightAware
01:26PM 34.6530 -80.8920 177° South 339 390 15,000 1,800 Climbing FlightAware
01:27PM 34.5740 -80.8860 176° South 356 410 16,300 1,920 Climbing FlightAware
01:28PM 34.5090 -80.8870 181° South 350 403 17,800 1,560 Climbing FlightAware
01:28PM 34.4490 -80.8920 184° South 366 421 18,400 1,200 Climbing FlightAware
01:29PM 34.3680 -80.8970 183° South 373 429 19,500 1,380 Climbing FlightAware
01:30PM 34.2720 -80.9040 183° South 387 445 20,700 1,380 Climbing FlightAware
01:31PM 34.1680 -80.9120 184° South 392 451 22,100 1,440 Climbing FlightAware
01:31PM 34.0970 -80.9170 183° South 397 457 23,000 1,260 Climbing FlightAware
01:32PM 34.0250 -80.9220 183° South 405 466 23,800 1,380 Climbing FlightAware
01:33PM 33.9380 -80.9280 183° South 402 463 25,000 1,080 Climbing FlightAware
01:34PM 33.8650 -80.9330 183° South 415 478 25,400 900 Climbing FlightAware
01:34PM 33.7730 -80.9390 183° South 418 481 26,300 1,200 Climbing FlightAware
01:35PM 33.6940 -80.9450 184° South 417 480 27,200 1,020 Climbing FlightAware
01:36PM 33.5870 -80.9520 183° South 423 487 28,000 480 Climbing FlightAware
01:37PM 33.4990 -80.9590 184° South 424 488 28,000  Level FlightAware
01:37PM 33.4110 -80.9650 183° South 422 486 28,000  Level FlightAware
01:38PM 33.3350 -80.9700 183° South 421 484 28,000  Level FlightAware
01:39PM 33.2560 -80.9760 184° South 423 487 28,000  Level FlightAware
01:39PM 33.1780 -80.9810 183° South 422 486 28,000  Level FlightAware
01:40PM 33.0990 -80.9860 183° South 424 488 28,000  Level FlightAware
01:41PM 33.0210 -80.9920 184° South 424 488 28,000  Level FlightAware
01:41PM 32.9350 -80.9980 183° South 398 458 28,000  Level FlightAware
01:42PM 32.8530 -81.0030 183° South 398 458 28,000  Level FlightAware
01:43PM 32.7780 -81.0090 184° South 402 463 28,000  Level FlightAware
01:44PM 32.7060 -81.0140 183° South 404 465 28,000  Level FlightAware
01:44PM 32.6290 -81.0190 183° South 405 466 28,000  Level FlightAware
01:45PM 32.5800 -81.0220 183° South 404 465 28,000  Level FlightAware
01:46PM 32.4900 -81.0290 184° South 407 468 28,000  Level FlightAware
01:46PM 32.4890 -81.0290 180° South 407 468 28,000  Level FlightAware
01:47PM 32.3180 -81.0400 183° South 403 464 28,000  Level FlightAware
01:48PM 32.2410 -81.0450 183° South 404 465 28,000  Level FlightAware
01:48PM 32.2090 -81.0530 192° South 399 459 28,000  Level FlightAware
01:49PM 32.1220 -81.1130 210° Southwest 396 456 28,000  Level FlightAware
01:50PM 32.0510 -81.1650 212° Southwest 401 461 28,000  Level FlightAware
01:50PM 31.9770 -81.2180 211° Southwest 399 459 28,000  Level FlightAware
01:51PM 31.9110 -81.2650 211° Southwest 401 461 28,000  Level FlightAware
01:52PM 31.8450 -81.3130 212° Southwest 401 461 28,000  Level FlightAware
01:52PM 31.7820 -81.3580 211° Southwest 398 458 28,000  Level FlightAware
01:53PM 31.7190 -81.3920 205° Southwest 406 467 28,000  Level FlightAware
01:54PM 31.6310 -81.3700 168° South 427 491 28,000  Level FlightAware
01:55PM 31.5770 -81.2920 129° Southeast 439 505 28,000  Level FlightAware
01:55PM 31.5360 -81.2150 122° Southeast 442 509 28,000  Level FlightAware
01:56PM 31.4770 -81.1520 138° Southeast 427 491 28,000  Level FlightAware
01:57PM 31.4090 -81.1150 155° Southeast 424 488 28,000  Level FlightAware
01:57PM 31.3310 -81.1320 191° South 411 473 28,000  Level FlightAware
01:58PM 31.2600 -81.1310 179° South 417 480 28,000  Level FlightAware
01:59PM 31.1810 -81.1300 179° South 417 480 28,000  Level FlightAware
01:59PM 31.1200 -81.1280 178° South 417 480 28,000  Level FlightAware
02:00PM 31.0550 -81.1270 179° South 417 480 28,000  Level FlightAware
02:01PM 30.9780 -81.1250 179° South 417 480 28,000  Level FlightAware
02:05PM 30.3500 -81.1230 180° South 446 513 28,000  Level FlightAware
02:06PM 30.2750 -81.1220 179° South 445 512 28,000 -540 Level FlightAware
02:07PM 30.1750 -81.1210 180° South 442 509 27,300 -660 Descending FlightAware
02:07PM 30.0890 -81.1210 180° South 441 507 27,000 -720 Descending FlightAware
02:08PM 30.0550 -81.1200 179° South 439 505 26,300 -1,020 Descending FlightAware
02:09PM 29.9800 -81.1190 179° South 429 494 25,700 -780 Descending FlightAware
02:09PM 29.8490 -81.1180 180° South 423 487 25,300 -300 Descending FlightAware
02:10PM 29.7730 -81.1180 180° South 423 487 25,300 -1,260 Level FlightAware
02:11PM 29.8390 -81.1180 360° North 414 476 23,400 -1,200 Descending FlightAware
02:12PM 29.7610 -81.1180 180° South 414 476 23,400  Level FlightAware
02:12PM 29.7030 -81.1180 180° South 414 476 23,400  Level FlightAware
02:13PM 29.6190 -81.1180 180° South 414 476 23,400  Level FlightAware
02:14PM 29.5590 -81.1180 180° South 414 476 23,400 -5,280 Level FlightAware
02:15PM 29.2944 -81.1567 180° South 368 423 16,100 -5,160 Descending Jacksonville Center
02:16PM 29.2006 -81.1678 186° South 356 410 14,300 -1,680 Descending Jacksonville Center
02:17PM 29.1067 -81.1672 180° South 345 397 12,800 -1,200 Descending Jacksonville Center
02:18PM 29.0189 -81.1617 177° South 334 384 12,000 -720 Descending Jacksonville Center
02:19PM 28.9375 -81.1536 175° South 321 369 11,400 -1,080 Descending Jacksonville Center
02:20PM 28.8619 -81.1192 158° South 306 352 9,900 -1,620 Descending Jacksonville Center
02:20PM 28.8167 -81.0833 145° Southeast 292 336 8,700 -960 Descending Orlando TRACON
02:26PM 28.6680 -81.2680 145° Southeast 224 258 4,400 -780 Descending FlightAware
02:27PM 28.6320 -81.2780 194° South 224 258 4,000 -960 Descending FlightAware
02:27PM 28.6190 -81.2820 195° South 219 252 3,200 -900 Descending FlightAware
02:27PM 28.5950 -81.2890 194° South 219 252 3,200 -480 Level FlightAware
02:28PM 28.5760 -81.2840 167° South 207 238 2,700 -480 Descending FlightAware
02:29PM 28.5550 -81.2850 182° South 207 238 2,700  Level FlightAware